Apple Grove, North Carolina
Current Conditions -  °F | °C
As of 2:35 AM on Thursday 23 Oct 2014 (Local Time) from KGEV Reporting Station
Clear Clear  
Wind Chill:   Ceiling: Unl
Heat Index:   Visibility: 10mi
Dew Point:   Wind: 3mph
Humidity: 75%   Direction: 330°NNW
Pressure: 30.09"   Gusts: NA
Location:  36.524°N, 81.538°W
Report Text: KGEV 230635Z AUTO 33003KT 10SM CLR 05/01 A3009 RMK AO2 T00460005
Loading
Personal Weather Stations






























Interactive Weather Map
Tropical Storm Tracking
New forecast layout! Learn more

10-Day Weather Forecast

Advertisements
Track Severe Weather on mobile